createdAt,value
2023-07-15T00:01:38.332Z,22.14
2023-07-15T00:04:12.708Z,22.11
2023-07-15T00:06:40.525Z,22.19
2023-07-15T00:09:07.889Z,22.07
2023-07-15T00:11:38.560Z,22.15
2023-07-15T00:14:15.796Z,21.96
2023-07-15T00:16:43.084Z,21.96
2023-07-15T00:19:10.409Z,21.98
2023-07-15T00:21:38.068Z,21.86
2023-07-15T00:24:05.357Z,21.95
2023-07-15T00:26:33.814Z,21.89
2023-07-15T00:29:01.400Z,21.88
2023-07-15T00:31:29.257Z,21.88
2023-07-15T00:33:56.444Z,21.98
2023-07-15T00:36:23.936Z,21.99
2023-07-15T00:38:51.248Z,21.83
2023-07-15T00:41:22.577Z,21.78
2023-07-15T00:44:04.071Z,21.91
2023-07-15T00:46:54.557Z,21.88
2023-07-15T00:49:27.764Z,21.84
2023-07-15T00:52:11.343Z,21.90
2023-07-15T00:54:43.070Z,21.71
2023-07-15T00:57:12.475Z,21.56
2023-07-15T00:59:40.875Z,21.59
2023-07-15T01:02:10.515Z,21.64
2023-07-15T01:04:37.699Z,21.60
2023-07-15T01:07:08.455Z,21.55
2023-07-15T01:09:36.407Z,21.47
2023-07-15T01:12:04.594Z,21.67
2023-07-15T01:14:31.831Z,21.57
2023-07-15T01:16:58.851Z,21.63
2023-07-15T01:19:26.215Z,21.54
2023-07-15T01:21:54.620Z,21.54
2023-07-15T01:24:23.535Z,21.62
2023-07-15T01:26:57.810Z,21.55
2023-07-15T01:29:25.330Z,21.61
2023-07-15T01:31:52.404Z,21.56
2023-07-15T01:34:20.942Z,21.55
2023-07-15T01:36:49.345Z,21.39
2023-07-15T01:39:17.070Z,21.35
2023-07-15T01:41:45.560Z,21.39
2023-07-15T01:44:13.561Z,21.28
2023-07-15T01:46:41.107Z,21.01
2023-07-15T01:49:08.663Z,21.03
2023-07-15T01:51:36.704Z,21.13
2023-07-15T01:54:04.326Z,21.22
2023-07-15T01:56:31.664Z,21.18
2023-07-15T01:58:59.128Z,21.08
2023-07-15T02:01:28.756Z,21.06
2023-07-15T02:03:56.268Z,21.17
2023-07-15T02:06:23.681Z,20.84
2023-07-15T02:08:51.168Z,21.13
2023-07-15T02:11:18.261Z,21.19
2023-07-15T02:13:45.473Z,20.99
2023-07-15T02:16:13.280Z,21.12
2023-07-15T02:18:40.755Z,20.88
2023-07-15T02:21:08.259Z,21.04
2023-07-15T02:23:36.758Z,21.06
2023-07-15T02:26:03.818Z,21.15
2023-07-15T02:28:31.278Z,20.99
2023-07-15T02:30:58.361Z,21.13
2023-07-15T02:33:25.830Z,21.14
2023-07-15T02:35:53.198Z,21.03
2023-07-15T02:38:20.201Z,21.02
2023-07-15T02:40:49.585Z,21.13
2023-07-15T02:43:16.749Z,20.94
2023-07-15T02:45:43.832Z,21.02
2023-07-15T02:48:11.074Z,21.03
2023-07-15T02:50:38.200Z,21.15
2023-07-15T02:53:05.706Z,21.18
2023-07-15T02:55:33.073Z,21.10
2023-07-15T02:58:00.255Z,20.98
2023-07-15T03:00:27.784Z,20.97
2023-07-15T03:02:54.904Z,20.93
2023-07-15T03:05:22.482Z,20.85
2023-07-15T03:07:50.642Z,21.02
2023-07-15T03:10:20.229Z,21.08
2023-07-15T03:12:49.453Z,21.07
2023-07-15T03:15:17.299Z,21.09
2023-07-15T03:17:45.174Z,21.18
2023-07-15T03:20:24.727Z,21.41
2023-07-15T03:22:52.601Z,21.29
2023-07-15T03:25:22.998Z,21.31
2023-07-15T03:27:51.495Z,21.22
2023-07-15T03:30:19.834Z,21.27
2023-07-15T03:32:50.033Z,21.37
2023-07-15T03:35:17.809Z,21.37
2023-07-15T03:37:45.837Z,21.50
2023-07-15T03:40:14.274Z,21.42
2023-07-15T03:42:42.823Z,21.44
2023-07-15T03:45:10.946Z,21.61
2023-07-15T03:47:39.842Z,21.48
2023-07-15T03:50:10.701Z,21.68
2023-07-15T03:52:40.598Z,21.76
2023-07-15T04:03:33.477Z,21.28
2023-07-15T04:06:00.876Z,21.52
2023-07-15T04:08:27.866Z,21.48
2023-07-15T04:10:55.240Z,21.65
2023-07-15T04:13:22.277Z,21.57
2023-07-15T04:15:49.477Z,21.54
2023-07-15T04:18:18.027Z,21.57
2023-07-15T04:20:45.156Z,21.63
2023-07-15T04:23:12.272Z,21.75
2023-07-15T04:25:40.001Z,21.72
2023-07-15T04:28:07.019Z,21.83
2023-07-15T04:30:34.105Z,21.93
2023-07-15T04:33:01.191Z,22.04
2023-07-15T04:35:29.269Z,22.04
2023-07-15T04:37:56.292Z,22.06
2023-07-15T04:40:23.595Z,22.19
2023-07-15T04:42:50.576Z,22.22
2023-07-15T04:45:17.578Z,22.30
2023-07-15T04:47:44.742Z,22.43
2023-07-15T04:50:12.093Z,22.39
2023-07-15T04:52:39.289Z,22.47
2023-07-15T04:55:06.624Z,22.45
2023-07-15T04:57:33.822Z,22.54
2023-07-15T05:00:02.217Z,22.72
2023-07-15T05:02:32.572Z,22.67
2023-07-15T05:04:59.679Z,22.82
2023-07-15T05:07:26.874Z,22.76
2023-07-15T05:09:53.933Z,22.80
2023-07-15T05:12:21.176Z,22.77
2023-07-15T05:17:16.664Z,22.94
2023-07-15T05:19:44.630Z,23.07
2023-07-15T05:22:12.043Z,22.97
2023-07-15T05:24:40.184Z,23.15
2023-07-15T05:27:07.472Z,23.24
2023-07-15T05:29:34.654Z,23.30
2023-07-15T05:32:01.923Z,23.44
2023-07-15T05:34:29.040Z,23.36
2023-07-15T05:36:56.198Z,23.46
2023-07-15T05:39:23.679Z,23.45
2023-07-15T05:41:51.539Z,23.51
2023-07-15T05:44:18.641Z,23.64
2023-07-15T05:46:45.747Z,23.69
2023-07-15T05:49:12.994Z,23.79
2023-07-15T05:51:40.151Z,23.87
2023-07-15T05:54:07.379Z,24.01
2023-07-15T05:56:34.515Z,23.99
2023-07-15T05:59:01.480Z,24.03
2023-07-15T06:01:28.590Z,24.12
2023-07-15T06:03:55.932Z,24.24
2023-07-15T06:06:23.384Z,24.36
2023-07-15T06:08:50.596Z,24.43
2023-07-15T06:11:18.502Z,24.43
2023-07-15T06:13:45.570Z,24.53
2023-07-15T06:16:12.756Z,24.44
2023-07-15T06:18:40.325Z,24.59
2023-07-15T06:21:08.811Z,24.73
2023-07-15T06:23:36.943Z,24.68
2023-07-15T06:26:04.254Z,24.73
2023-07-15T06:28:31.480Z,24.68
2023-07-15T06:31:07.973Z,24.77
2023-07-15T06:33:36.779Z,24.85
2023-07-15T06:36:05.121Z,25.01
2023-07-15T06:38:32.324Z,25.13
2023-07-15T06:40:59.622Z,25.17
2023-07-15T06:43:26.578Z,25.30
2023-07-15T06:45:53.588Z,25.32
2023-07-15T06:48:20.779Z,25.45
2023-07-15T06:50:48.039Z,25.54
2023-07-15T06:53:15.056Z,25.68
2023-07-15T06:55:42.593Z,25.70
2023-07-15T06:58:09.694Z,25.89
2023-07-15T07:00:37.094Z,25.96
2023-07-15T07:03:04.306Z,26.07
2023-07-15T07:05:31.636Z,26.06
2023-07-15T07:07:58.978Z,26.25
2023-07-15T07:10:26.177Z,26.25
2023-07-15T07:12:53.250Z,26.23
2023-07-15T07:15:20.584Z,26.45
2023-07-15T07:17:47.824Z,26.48
2023-07-15T07:20:15.149Z,26.51
2023-07-15T07:22:43.981Z,26.52
2023-07-15T07:25:11.223Z,26.58
2023-07-15T07:27:39.477Z,26.69
2023-07-15T07:30:07.528Z,26.69
2023-07-15T07:32:34.938Z,26.82
2023-07-15T07:35:02.247Z,26.94
2023-07-15T07:37:29.560Z,27.03
2023-07-15T07:39:56.644Z,27.04
2023-07-15T07:42:24.121Z,27.20
2023-07-15T07:44:51.161Z,27.27
2023-07-15T07:47:18.298Z,27.27
2023-07-15T07:49:45.288Z,27.46
2023-07-15T07:52:14.251Z,27.41
2023-07-15T07:54:41.473Z,27.43
2023-07-15T07:57:09.548Z,27.66
2023-07-15T07:59:38.185Z,27.43
2023-07-15T08:02:05.388Z,27.50
2023-07-15T08:04:34.185Z,27.57
2023-07-15T08:07:01.334Z,27.80
2023-07-15T08:09:31.828Z,28.04
2023-07-15T08:12:00.212Z,28.21
2023-07-15T08:14:27.390Z,28.30
2023-07-15T08:16:54.672Z,28.22
2023-07-15T08:19:21.855Z,28.10
2023-07-15T08:21:48.934Z,28.29
2023-07-15T08:24:16.185Z,28.35
2023-07-15T08:26:43.413Z,28.60
2023-07-15T08:29:10.480Z,28.47
2023-07-15T08:31:38.918Z,28.51
2023-07-15T08:34:06.017Z,28.47
2023-07-15T08:36:33.338Z,28.42
2023-07-15T08:39:00.339Z,28.45
2023-07-15T08:41:27.970Z,28.57
2023-07-15T08:43:55.116Z,28.56
2023-07-15T08:46:29.834Z,28.43
2023-07-15T08:48:58.937Z,28.43
2023-07-15T08:51:30.861Z,28.57
2023-07-15T08:54:02.323Z,28.75
2023-07-15T08:56:30.984Z,28.63
2023-07-15T08:58:59.401Z,28.69
2023-07-15T09:01:26.721Z,28.73
2023-07-15T09:03:54.007Z,28.90
2023-07-15T09:06:21.363Z,28.82
2023-07-15T09:08:52.426Z,28.77
2023-07-15T09:11:19.920Z,28.73
2023-07-15T09:13:48.111Z,28.88
2023-07-15T09:16:16.434Z,29.10
2023-07-15T09:18:44.533Z,29.11
2023-07-15T09:21:17.069Z,29.13
2023-07-15T09:23:46.202Z,29.17
2023-07-15T09:26:14.811Z,29.41
2023-07-15T09:28:48.321Z,29.50
2023-07-15T09:31:24.197Z,29.58
2023-07-15T09:33:51.423Z,29.66
2023-07-15T09:36:33.538Z,29.63
2023-07-15T09:39:19.534Z,29.79
2023-07-15T09:42:03.577Z,29.92
2023-07-15T09:44:46.889Z,30.03
2023-07-15T09:47:14.113Z,30.08
2023-07-15T09:49:41.357Z,29.92
2023-07-15T09:52:08.761Z,30.17
2023-07-15T09:54:37.253Z,30.38
2023-07-15T09:57:12.252Z,30.50
2023-07-15T09:59:47.734Z,30.67
2023-07-15T10:02:43.498Z,30.78
2023-07-15T10:05:14.994Z,30.90
2023-07-15T10:07:42.876Z,30.95
2023-07-15T10:10:10.337Z,30.86
2023-07-15T10:12:39.437Z,30.89
2023-07-15T10:15:08.721Z,31.17
2023-07-15T10:17:39.797Z,31.23
2023-07-15T10:20:11.774Z,31.15
2023-07-15T10:22:40.733Z,31.23
2023-07-15T10:25:17.195Z,31.25
2023-07-15T10:27:44.641Z,31.26
2023-07-15T10:30:23.595Z,31.19
2023-07-15T10:33:23.502Z,30.76
2023-07-15T10:35:52.861Z,30.33
2023-07-15T10:38:30.665Z,30.23
2023-07-15T10:41:03.274Z,30.64
2023-07-15T10:43:36.408Z,30.63
2023-07-15T10:46:08.085Z,30.98
2023-07-15T10:48:36.649Z,31.19
2023-07-15T10:51:07.096Z,31.41
2023-07-15T10:53:35.574Z,31.43
2023-07-15T10:56:10.602Z,31.54
2023-07-15T10:58:38.397Z,31.29
2023-07-15T11:01:09.504Z,31.48
2023-07-15T11:03:38.904Z,31.61
2023-07-15T11:06:10.222Z,31.47
2023-07-15T11:08:41.192Z,31.78
2023-07-15T11:11:11.726Z,31.60
2023-07-15T11:13:40.773Z,31.73
2023-07-15T11:16:08.145Z,31.67
2023-07-15T11:18:35.479Z,31.50
2023-07-15T11:21:02.852Z,31.43
2023-07-15T11:23:32.158Z,31.59
2023-07-15T11:26:09.012Z,31.68
2023-07-15T11:28:36.230Z,32.05
2023-07-15T11:31:03.337Z,31.67
2023-07-15T11:33:30.499Z,31.32
2023-07-15T11:35:57.734Z,31.62
2023-07-15T11:38:32.126Z,31.54
2023-07-15T11:41:01.249Z,31.36
2023-07-15T11:43:31.566Z,31.16
2023-07-15T11:46:00.654Z,30.76
2023-07-15T11:48:32.601Z,30.74
2023-07-15T11:51:10.052Z,30.65
2023-07-15T11:53:38.944Z,30.60
2023-07-15T11:56:09.199Z,30.49
2023-07-15T11:58:40.753Z,30.59
2023-07-15T12:01:13.796Z,30.71
2023-07-15T12:03:41.622Z,30.84
2023-07-15T12:06:20.184Z,30.51
2023-07-15T12:09:02.968Z,30.93
2023-07-15T12:11:34.189Z,31.28
2023-07-15T12:14:02.732Z,31.14
2023-07-15T12:16:32.038Z,31.57
2023-07-15T12:19:00.605Z,32.11
2023-07-15T12:21:28.669Z,32.41
2023-07-15T12:23:57.096Z,32.44
2023-07-15T12:26:24.587Z,32.28
2023-07-15T12:28:52.111Z,32.63
2023-07-15T12:31:19.862Z,32.96
2023-07-15T12:33:47.279Z,33.14
2023-07-15T12:36:17.635Z,33.21
2023-07-15T12:38:46.205Z,32.76
2023-07-15T12:41:14.289Z,33.12
2023-07-15T12:43:42.513Z,32.71
2023-07-15T12:46:10.940Z,32.70
2023-07-15T12:48:40.107Z,33.18
2023-07-15T12:51:07.348Z,33.49
2023-07-15T12:53:35.321Z,34.01
2023-07-15T12:56:02.314Z,34.21
2023-07-15T12:58:30.363Z,34.09
2023-07-15T13:00:58.733Z,33.84
2023-07-15T13:03:26.725Z,33.71
2023-07-15T13:05:54.006Z,34.07
2023-07-15T13:08:21.323Z,33.75
2023-07-15T13:10:49.130Z,33.84
2023-07-15T13:13:16.228Z,33.48
2023-07-15T13:15:46.103Z,33.81
2023-07-15T13:18:14.132Z,33.54
2023-07-15T13:20:42.355Z,33.71
2023-07-15T13:23:10.254Z,34.23
2023-07-15T13:25:39.346Z,34.26
2023-07-15T13:28:06.507Z,33.91
2023-07-15T13:30:34.880Z,33.68
2023-07-15T13:33:02.151Z,34.02
2023-07-15T13:35:30.134Z,34.11
2023-07-15T13:37:57.152Z,33.85
2023-07-15T13:40:24.686Z,33.36
2023-07-15T13:42:52.540Z,33.69
2023-07-15T13:45:20.559Z,33.40
2023-07-15T13:47:53.671Z,33.33
2023-07-15T13:50:22.436Z,33.98
2023-07-15T13:52:49.820Z,34.03
2023-07-15T13:55:18.276Z,33.75
2023-07-15T13:57:48.009Z,33.83
2023-07-15T14:00:15.622Z,34.00
2023-07-15T14:02:44.099Z,33.91
2023-07-15T14:05:11.713Z,33.63
2023-07-15T14:07:38.969Z,33.22
2023-07-15T14:10:07.186Z,32.92
2023-07-15T14:12:34.938Z,32.75
2023-07-15T14:15:02.323Z,32.24
2023-07-15T14:17:29.586Z,31.99
2023-07-15T14:22:34.175Z,31.57
2023-07-15T14:25:06.539Z,31.08
2023-07-15T14:27:34.452Z,31.00
2023-07-15T14:30:01.614Z,30.82
2023-07-15T14:32:29.063Z,30.72
2023-07-15T14:34:56.147Z,30.65
2023-07-15T14:37:23.149Z,30.41
2023-07-15T14:39:50.168Z,30.37
2023-07-15T14:42:17.664Z,30.24
2023-07-15T14:44:44.726Z,30.00
2023-07-15T14:47:11.993Z,30.00
2023-07-15T14:49:39.277Z,29.87
2023-07-15T14:52:06.736Z,29.89
2023-07-15T14:54:34.304Z,29.83
2023-07-15T14:57:02.449Z,29.80
2023-07-15T14:59:30.151Z,29.70
2023-07-15T15:01:57.170Z,29.54
2023-07-15T15:04:25.823Z,29.52
2023-07-15T15:06:53.327Z,29.28
2023-07-15T15:09:20.616Z,29.42
2023-07-15T15:11:47.616Z,29.51
2023-07-15T15:14:14.903Z,29.33
2023-07-15T15:16:42.244Z,29.34
2023-07-15T15:19:09.607Z,29.29
2023-07-15T15:21:38.432Z,29.14
2023-07-15T15:24:06.166Z,28.97
2023-07-15T15:26:33.632Z,29.06
2023-07-15T15:29:00.975Z,28.97
2023-07-15T15:31:28.250Z,28.91
2023-07-15T15:33:55.472Z,28.93
2023-07-15T15:36:22.644Z,28.83
2023-07-15T15:38:49.717Z,28.77
2023-07-15T15:41:16.942Z,28.73
2023-07-15T15:43:44.744Z,28.69
2023-07-15T15:46:12.392Z,28.64
2023-07-15T15:48:42.310Z,28.68
2023-07-15T15:51:10.017Z,28.61
2023-07-15T15:53:37.454Z,28.50
2023-07-15T15:56:05.315Z,28.35
2023-07-15T15:58:32.533Z,28.39
2023-07-15T16:00:59.722Z,28.31
2023-07-15T16:03:30.344Z,28.34
2023-07-15T16:05:58.588Z,28.24
2023-07-15T16:08:26.190Z,28.21
2023-07-15T16:10:53.334Z,28.14
2023-07-15T16:13:20.689Z,28.10
2023-07-15T16:15:49.233Z,28.01
2023-07-15T16:18:16.251Z,28.01
2023-07-15T16:20:44.005Z,28.02
2023-07-15T16:23:11.895Z,27.94
2023-07-15T16:25:41.174Z,27.96
2023-07-15T16:28:08.867Z,28.04
2023-07-15T16:30:37.128Z,27.92
2023-07-15T16:33:05.299Z,27.87
2023-07-15T16:35:32.637Z,27.87
2023-07-15T16:38:16.350Z,27.78
2023-07-15T16:40:43.987Z,27.76
2023-07-15T16:43:11.063Z,27.68
2023-07-15T16:45:38.759Z,27.69
2023-07-15T16:48:06.249Z,27.59
2023-07-15T16:50:33.400Z,27.54
2023-07-15T16:53:00.399Z,27.54
2023-07-15T16:55:27.652Z,27.39
2023-07-15T16:57:54.629Z,27.38
2023-07-15T17:00:22.296Z,27.34
2023-07-15T17:02:49.505Z,27.34
2023-07-15T17:05:16.825Z,27.39
2023-07-15T17:07:43.913Z,27.26
2023-07-15T17:10:11.136Z,27.17
2023-07-15T17:12:38.640Z,27.17
2023-07-15T17:15:06.321Z,27.11
2023-07-15T17:17:33.581Z,27.06
2023-07-15T17:20:00.815Z,26.95
2023-07-15T17:22:28.022Z,26.99
2023-07-15T17:24:57.655Z,27.00
2023-07-15T17:27:25.072Z,26.91
2023-07-15T17:29:52.066Z,26.87
2023-07-15T17:32:19.516Z,26.81
2023-07-15T17:34:47.135Z,26.76
2023-07-15T17:37:14.295Z,26.73
2023-07-15T17:39:41.431Z,26.57
2023-07-15T17:42:08.618Z,26.62
2023-07-15T17:44:36.368Z,26.67
2023-07-15T17:47:03.993Z,26.56
2023-07-15T17:49:31.950Z,26.48
2023-07-15T17:51:59.072Z,26.43
2023-07-15T17:54:28.056Z,26.39
2023-07-15T17:56:56.076Z,26.33
2023-07-15T17:59:23.550Z,26.35
2023-07-15T18:01:50.862Z,26.25
2023-07-15T18:04:18.141Z,26.21
2023-07-15T18:06:45.456Z,26.16
2023-07-15T18:09:13.652Z,26.14
2023-07-15T18:11:41.606Z,26.04
2023-07-15T18:14:08.938Z,26.02
2023-07-15T18:16:36.578Z,26.04
2023-07-15T18:19:05.202Z,26.06
2023-07-15T18:21:32.681Z,26.12
2023-07-15T18:23:59.760Z,26.06
2023-07-15T18:26:26.827Z,26.07
2023-07-15T18:28:55.384Z,25.98
2023-07-15T18:31:22.986Z,25.95
2023-07-15T18:33:50.670Z,25.92
2023-07-15T18:36:17.732Z,25.84
2023-07-15T18:38:44.955Z,25.86
2023-07-15T18:41:13.285Z,25.82
2023-07-15T18:43:41.987Z,25.78
2023-07-15T18:46:09.943Z,25.66
2023-07-15T18:48:37.523Z,25.72
2023-07-15T18:51:05.303Z,25.64
2023-07-15T18:53:33.160Z,25.41
2023-07-15T18:56:00.327Z,25.50
2023-07-15T18:58:28.471Z,25.47
2023-07-15T19:00:55.521Z,25.50
2023-07-15T19:03:22.806Z,25.46
2023-07-15T19:05:51.411Z,25.41
2023-07-15T19:08:19.680Z,25.22
2023-07-15T19:10:46.837Z,25.19
2023-07-15T19:13:15.430Z,25.09
2023-07-15T19:15:42.795Z,24.89
2023-07-15T19:18:10.251Z,24.81
2023-07-15T19:20:38.273Z,24.87
2023-07-15T19:23:05.440Z,24.78
2023-07-15T19:25:33.509Z,24.64
2023-07-15T19:28:00.959Z,24.62
2023-07-15T19:30:28.033Z,24.60
2023-07-15T19:32:55.946Z,24.56
2023-07-15T19:35:23.506Z,24.49
2023-07-15T19:37:50.598Z,24.45
2023-07-15T19:40:17.764Z,24.42
2023-07-15T19:42:45.048Z,24.43
2023-07-15T19:45:12.190Z,24.40
2023-07-15T19:47:40.435Z,24.31
2023-07-15T19:50:08.277Z,24.08
2023-07-15T19:52:35.690Z,24.14
2023-07-15T19:55:02.860Z,24.07
2023-07-15T19:57:30.290Z,23.78
2023-07-15T19:59:58.262Z,23.94
2023-07-15T20:02:25.648Z,23.92
2023-07-15T20:04:52.930Z,23.92
2023-07-15T20:07:20.370Z,23.91
2023-07-15T20:09:47.748Z,23.92
2023-07-15T20:12:14.886Z,23.94
2023-07-15T20:14:42.556Z,23.93
2023-07-15T20:17:11.941Z,23.90
2023-07-15T20:19:38.976Z,23.87
2023-07-15T20:22:06.453Z,23.84
2023-07-15T20:24:33.455Z,23.77
2023-07-15T20:27:00.612Z,23.62
2023-07-15T20:29:27.740Z,23.70
2023-07-15T20:31:55.145Z,23.60
2023-07-15T20:34:22.222Z,23.57
2023-07-15T20:36:49.678Z,23.70
2023-07-15T20:39:17.355Z,23.55
2023-07-15T20:41:44.770Z,23.50
2023-07-15T20:44:12.580Z,23.52
2023-07-15T20:46:40.309Z,23.41
2023-07-15T20:49:07.510Z,23.36
2023-07-15T20:51:35.100Z,23.16
2023-07-15T20:54:03.706Z,22.86
2023-07-15T20:56:30.961Z,22.90
2023-07-15T20:58:58.233Z,22.56
2023-07-15T21:01:25.528Z,22.34
2023-07-15T21:03:53.917Z,22.39
2023-07-15T21:06:21.060Z,22.45
2023-07-15T21:08:48.761Z,22.61
2023-07-15T21:11:19.180Z,22.54
2023-07-15T21:13:47.757Z,22.59
2023-07-15T21:16:15.248Z,22.58
2023-07-15T21:18:43.156Z,22.62
2023-07-15T21:21:10.997Z,22.51
2023-07-15T21:23:38.658Z,22.43
2023-07-15T21:26:07.671Z,22.40
2023-07-15T21:28:36.741Z,22.32
2023-07-15T21:31:04.741Z,22.06
2023-07-15T21:33:32.697Z,21.91
2023-07-15T21:35:59.989Z,21.91
2023-07-15T21:38:27.364Z,21.94
2023-07-15T21:40:54.489Z,22.00
2023-07-15T21:43:22.227Z,22.10
2023-07-15T21:45:49.316Z,22.07
2023-07-15T21:48:17.230Z,21.88
2023-07-15T21:50:45.913Z,22.02
2023-07-15T21:53:13.195Z,21.93
2023-07-15T21:55:41.271Z,21.81
2023-07-15T21:58:09.732Z,21.87
2023-07-15T22:00:39.593Z,21.75
2023-07-15T22:03:07.195Z,21.75
2023-07-15T22:05:34.904Z,21.62
2023-07-15T22:08:01.909Z,21.63
2023-07-15T22:10:29.527Z,21.87
2023-07-15T22:12:56.679Z,21.75
2023-07-15T22:15:24.183Z,21.72
2023-07-15T22:17:51.498Z,21.66
2023-07-15T22:20:18.775Z,21.63
2023-07-15T22:22:46.023Z,21.39
2023-07-15T22:25:13.374Z,21.35
2023-07-15T22:27:40.366Z,21.33
2023-07-15T22:30:09.754Z,21.21
2023-07-15T22:32:38.133Z,21.00
2023-07-15T22:35:05.604Z,21.06
2023-07-15T22:37:32.686Z,20.88
2023-07-15T22:39:59.814Z,20.97
2023-07-15T22:42:26.799Z,21.03
2023-07-15T22:44:53.968Z,21.21
2023-07-15T22:47:21.715Z,20.97
2023-07-15T22:49:48.884Z,21.06
2023-07-15T22:52:16.068Z,21.11
2023-07-15T22:54:45.010Z,20.99
2023-07-15T22:57:12.024Z,20.73
2023-07-15T22:59:39.071Z,20.58
2023-07-15T23:02:06.376Z,20.77
2023-07-15T23:04:33.537Z,20.60
2023-07-15T23:07:03.220Z,20.69
2023-07-15T23:09:30.408Z,20.55
2023-07-15T23:11:57.659Z,20.38
2023-07-15T23:14:24.997Z,20.37
2023-07-15T23:16:52.814Z,20.36
2023-07-15T23:19:19.830Z,20.28
2023-07-15T23:21:46.940Z,20.35
2023-07-15T23:24:14.175Z,20.52
2023-07-15T23:26:44.273Z,20.77
2023-07-15T23:29:11.704Z,20.94
2023-07-15T23:31:39.344Z,20.84
2023-07-15T23:34:25.642Z,20.78
2023-07-15T23:36:54.691Z,20.44
2023-07-15T23:39:22.184Z,20.10
2023-07-15T23:41:49.305Z,20.41
2023-07-15T23:44:16.340Z,20.30
2023-07-15T23:46:45.852Z,20.48
2023-07-15T23:49:13.156Z,20.47
2023-07-15T23:51:40.893Z,20.24
2023-07-15T23:54:08.175Z,20.23
2023-07-15T23:56:35.968Z,20.18
2023-07-15T23:59:03.372Z,20.02
